Time;durP1;ratioP1;P1;durP2;ratioP2;P2;SDS_P1;SDS_P2;PMS_P1;PMS_P2;Temp;Humidity;BMP_temperature;BMP_pressure;BME280_temperature;BME280_humidity;BME280_pressure;Samples;Min_cycle;Max_cycle;Signal;HPM_P1;HPM_P2
2022/11/08 00:02:00;;;;;;;270.20;108.32;;;8.80;99.90;;;;;;5115917;28;20023;-75
2022/11/08 00:04:33;;;;;;;272.50;112.68;;;8.70;99.90;;;;;;5115963;28;20479;-76
2022/11/08 00:15:12;;;;;;;277.67;109.38;;;8.80;99.90;;;;;;5105772;28;20020;-75
2022/11/08 00:17:38;;;;;;;287.17;106.68;;;8.80;99.90;;;;;;5095611;28;20024;-75
2022/11/08 00:20:05;;;;;;;204.82;90.20;;;8.80;99.90;;;;;;5095855;28;20110;-75
2022/11/08 00:22:31;;;;;;;288.27;112.22;;;8.90;99.90;;;;;;5095392;28;20059;-76
2022/11/08 00:24:57;;;;;;;268.83;119.07;;;8.80;99.90;;;;;;5095219;28;20469;-75
2022/11/08 00:27:24;;;;;;;269.48;115.15;;;8.70;99.90;;;;;;5095402;28;20056;-75
2022/11/08 00:29:50;;;;;;;197.63;89.25;;;8.70;99.90;;;;;;5095717;28;20024;-75
2022/11/08 00:32:18;;;;;;;227.93;99.05;;;8.80;99.90;;;;;;5095562;28;20479;-75
2022/11/08 00:34:45;;;;;;;209.27;93.00;;;8.80;99.90;;;;;;5095458;28;20024;-75
2022/11/08 00:37:11;;;;;;;196.75;86.10;;;8.80;99.90;;;;;;5095482;28;20031;-75
2022/11/08 00:39:37;;;;;;;187.68;84.32;;;8.80;99.90;;;;;;5099075;28;20051;-75
2022/11/08 00:42:03;;;;;;;167.35;75.07;;;8.80;99.90;;;;;;5099315;28;20020;-75
2022/11/08 00:44:30;;;;;;;168.27;73.25;;;8.70;99.90;;;;;;5099365;28;20034;-75
2022/11/08 00:46:56;;;;;;;158.02;71.68;;;8.80;99.90;;;;;;5099199;28;20028;-75
2022/11/08 00:49:22;;;;;;;166.05;78.03;;;8.90;99.90;;;;;;5099173;28;20024;-75
2022/11/08 00:51:48;;;;;;;178.27;82.82;;;9.00;99.90;;;;;;5081054;28;20024;-75
2022/11/08 00:54:17;;;;;;;187.60;81.50;;;9.00;99.90;;;;;;5099214;28;20468;-75
2022/11/08 00:56:44;;;;;;;156.68;70.38;;;8.90;99.90;;;;;;5098959;28;20055;-75
2022/11/08 00:59:11;;;;;;;133.90;62.88;;;8.90;99.90;;;;;;5099053;28;20040;-75
2022/11/08 01:01:38;;;;;;;132.70;60.42;;;8.90;99.90;;;;;;5098922;28;20473;-75
2022/11/08 01:04:04;;;;;;;121.65;57.60;;;8.70;99.90;;;;;;5099207;28;20505;-76
2022/11/08 01:06:30;;;;;;;135.52;59.50;;;8.80;99.90;;;;;;5098883;28;20023;-76
2022/11/08 01:08:56;;;;;;;134.18;60.95;;;8.90;99.90;;;;;;5098768;28;20032;-75
2022/11/08 01:11:24;;;;;;;143.02;64.57;;;9.00;99.90;;;;;;5099028;28;20028;-75
2022/11/08 01:13:51;;;;;;;137.98;63.88;;;9.00;99.90;;;;;;5098931;28;20051;-75
2022/11/08 01:16:19;;;;;;;166.23;73.82;;;9.10;99.90;;;;;;5137315;27;20023;-75
2022/11/08 01:18:47;;;;;;;153.65;67.47;;;8.90;99.90;;;;;;5139998;27;20023;-75
2022/11/08 01:21:13;;;;;;;147.15;64.80;;;9.00;99.90;;;;;;5139927;27;20019;-76
2022/11/08 01:23:41;;;;;;;128.55;61.40;;;8.90;99.90;;;;;;5139591;27;20026;-76
2022/11/08 01:26:10;;;;;;;146.50;64.38;;;8.90;99.90;;;;;;5121207;27;20084;-75
2022/11/08 01:28:36;;;;;;;141.52;62.30;;;8.90;99.90;;;;;;5131562;27;20052;-76
2022/11/08 01:31:09;;;;;;;139.85;63.97;;;8.90;99.90;;;;;;5139739;27;20539;-76
2022/11/08 01:33:36;;;;;;;144.07;59.42;;;8.90;99.90;;;;;;5139785;27;20023;-76
2022/11/08 01:36:05;;;;;;;140.32;60.42;;;9.00;99.90;;;;;;5139485;27;20024;-76
2022/11/08 01:38:30;;;;;;;129.15;58.53;;;9.00;99.90;;;;;;5139011;27;20486;-76
2022/11/08 01:40:56;;;;;;;130.63;57.08;;;9.10;99.90;;;;;;5139095;27;20031;-75
2022/11/08 01:43:25;;;;;;;140.18;59.13;;;9.00;99.90;;;;;;5139191;27;20102;-75
2022/11/08 01:46:12;;;;;;;139.23;58.83;;;8.90;99.90;;;;;;5138976;27;20110;-76
2022/11/08 01:48:48;;;;;;;134.57;55.25;;;8.90;99.90;;;;;;5138535;27;20092;-76
2022/11/08 01:51:17;;;;;;;126.57;54.03;;;8.90;99.90;;;;;;5138361;27;20030;-75
2022/11/08 01:53:44;;;;;;;124.15;51.30;;;9.00;99.90;;;;;;5138541;27;20096;-75
2022/11/08 01:56:12;;;;;;;122.10;53.10;;;9.10;99.90;;;;;;5138283;27;20020;-75
2022/11/08 01:58:40;;;;;;;119.35;50.38;;;9.00;99.90;;;;;;5138345;27;20054;-75
2022/11/08 02:01:06;;;;;;;106.03;47.17;;;8.90;99.90;;;;;;5138427;27;20027;-76
2022/11/08 02:03:33;;;;;;;93.00;44.03;;;8.80;99.90;;;;;;5138527;27;20392;-76
2022/11/08 02:06:01;;;;;;;99.25;43.88;;;9.00;99.90;;;;;;5138386;27;20145;-77
2022/11/08 02:08:36;;;;;;;96.80;44.33;;;9.10;99.90;;;;;;5138246;27;20394;-75
2022/11/08 02:11:03;;;;;;;85.97;41.40;;;9.10;99.90;;;;;;5119944;27;20106;-75
2022/11/08 02:13:31;;;;;;;88.30;41.67;;;9.00;99.90;;;;;;5119509;27;20026;-75
2022/11/08 02:15:57;;;;;;;85.57;41.47;;;9.00;99.90;;;;;;5121347;27;20034;-75
2022/11/08 02:18:26;;;;;;;92.75;42.03;;;9.10;99.90;;;;;;5117422;28;20023;-75
2022/11/08 02:21:16;;;;;;;88.25;39.83;;;8.90;99.90;;;;;;5117039;28;20031;-75
2022/11/08 02:23:55;;;;;;;80.88;38.85;;;8.80;99.90;;;;;;5103812;28;20096;-75
2022/11/08 02:26:24;;;;;;;78.28;38.85;;;8.70;99.90;;;;;;5116971;28;20023;-75
2022/11/08 02:28:50;;;;;;;85.60;40.65;;;8.70;99.90;;;;;;5116625;28;20389;-75
2022/11/08 02:31:18;;;;;;;83.18;38.33;;;8.70;99.90;;;;;;5117144;28;20024;-75
2022/11/08 02:33:45;;;;;;;83.10;37.70;;;8.60;99.90;;;;;;5116990;28;20046;-75
2022/11/08 02:36:15;;;;;;;93.78;43.35;;;8.40;99.90;;;;;;5098527;28;20385;-75
2022/11/08 02:38:45;;;;;;;91.63;42.35;;;8.40;99.90;;;;;;5117056;28;20102;-75
2022/11/08 02:41:12;;;;;;;80.25;40.50;;;8.20;99.90;;;;;;5116999;28;20054;-75
2022/11/08 02:43:37;;;;;;;77.18;39.15;;;8.30;99.90;;;;;;5098558;28;20027;-75
2022/11/08 02:46:04;;;;;;;87.75;40.75;;;8.30;99.90;;;;;;5116942;28;20469;-75
2022/11/08 02:48:29;;;;;;;77.20;37.25;;;8.40;99.90;;;;;;5117474;28;20098;-75
2022/11/08 02:50:55;;;;;;;71.88;35.45;;;8.50;99.90;;;;;;5116526;28;20115;-75
2022/11/08 02:53:21;;;;;;;74.85;35.95;;;8.50;99.90;;;;;;5116867;28;20027;-75
2022/11/08 02:55:47;;;;;;;72.88;34.63;;;8.70;99.90;;;;;;5117069;28;20047;-75
2022/11/08 02:58:13;;;;;;;68.05;33.33;;;8.70;99.90;;;;;;5098439;28;20047;-75
2022/11/08 03:00:39;;;;;;;60.75;31.88;;;8.60;99.90;;;;;;5116477;28;20046;-75
2022/11/08 03:03:05;;;;;;;62.33;30.35;;;8.70;99.90;;;;;;5098483;28;20027;-75
2022/11/08 03:05:32;;;;;;;68.15;31.75;;;8.50;99.90;;;;;;5116781;28;20049;-75
2022/11/08 03:07:57;;;;;;;60.63;30.52;;;8.30;99.90;;;;;;5116630;28;20540;-75
2022/11/08 03:10:25;;;;;;;62.55;30.95;;;8.30;99.90;;;;;;5116576;28;20154;-75
2022/11/08 03:12:58;;;;;;;63.50;32.60;;;8.10;99.90;;;;;;5098125;28;20050;-75
2022/11/08 03:15:24;;;;;;;67.93;33.03;;;8.20;99.90;;;;;;5128021;27;20027;-75
2022/11/08 03:17:50;;;;;;;75.88;37.53;;;8.30;99.90;;;;;;5136834;27;20033;-75
2022/11/08 03:20:17;;;;;;;77.30;38.08;;;8.30;99.90;;;;;;5118276;27;20031;-75
2022/11/08 03:22:45;;;;;;;85.57;37.40;;;8.10;99.90;;;;;;5136832;27;20101;-75
2022/11/08 03:25:11;;;;;;;84.43;37.45;;;8.20;99.90;;;;;;5136200;27;20034;-75
2022/11/08 03:27:37;;;;;;;87.63;39.45;;;8.30;99.90;;;;;;5136632;27;20380;-75
2022/11/08 03:30:05;;;;;;;84.72;39.78;;;8.30;99.90;;;;;;5136538;27;20027;-75
2022/11/08 03:32:31;;;;;;;108.28;41.33;;;8.10;99.90;;;;;;5117735;27;20030;-75
2022/11/08 03:34:58;;;;;;;100.35;40.05;;;8.00;99.90;;;;;;5136549;27;20019;-75
2022/11/08 03:37:24;;;;;;;78.60;38.08;;;7.90;99.90;;;;;;5136199;27;20038;-75
2022/11/08 03:39:50;;;;;;;84.80;37.63;;;7.90;99.90;;;;;;5136293;27;20027;-75
2022/11/08 03:42:16;;;;;;;81.85;38.40;;;7.90;99.90;;;;;;5136429;27;20027;-75
2022/11/08 03:44:42;;;;;;;105.68;39.08;;;7.90;99.90;;;;;;5136369;27;20030;-75
2022/11/08 03:47:08;;;;;;;79.22;37.75;;;7.80;99.90;;;;;;5136179;27;20055;-75
2022/11/08 03:49:34;;;;;;;84.40;37.63;;;7.80;99.90;;;;;;5135909;27;20372;-75
2022/11/08 03:52:00;;;;;;;76.20;36.40;;;7.90;99.90;;;;;;5136250;27;20031;-75
2022/11/08 03:54:26;;;;;;;83.78;37.47;;;8.10;99.90;;;;;;5136449;27;20026;-75
2022/11/08 03:56:52;;;;;;;73.15;35.10;;;8.10;99.90;;;;;;5136383;27;20031;-75
2022/11/08 03:59:18;;;;;;;77.18;36.85;;;8.20;99.90;;;;;;5136188;27;20051;-75
2022/11/08 04:01:44;;;;;;;84.35;37.70;;;8.20;99.90;;;;;;5135983;27;20051;-75
2022/11/08 04:04:09;;;;;;;96.28;36.08;;;8.10;99.90;;;;;;5136315;27;20353;-75
2022/11/08 04:06:35;;;;;;;77.82;34.60;;;8.20;99.90;;;;;;5136147;27;20495;-75
2022/11/08 04:09:01;;;;;;;69.90;34.78;;;7.90;99.90;;;;;;5136303;27;20478;-75
2022/11/08 04:17:16;;;;;;;89.53;36.13;;;8.00;99.90;;;;;;5052651;28;20029;-75
2022/11/08 04:22:40;;;;;;;67.75;32.75;;;7.80;99.90;;;;;;5003289;28;20075;-75
2022/11/08 04:25:06;;;;;;;82.97;38.40;;;7.80;99.90;;;;;;5052589;28;20115;-75
2022/11/08 04:27:32;;;;;;;92.45;36.50;;;7.80;99.90;;;;;;5052501;28;20076;-75
2022/11/08 04:29:58;;;;;;;72.03;35.00;;;7.70;99.90;;;;;;5052435;28;20386;-75
2022/11/08 04:32:24;;;;;;;75.78;35.28;;;7.80;99.90;;;;;;5052751;28;20434;-74
2022/11/08 04:34:50;;;;;;;123.55;39.35;;;7.90;99.90;;;;;;5052708;28;20037;-75
2022/11/08 04:37:16;;;;;;;78.78;34.95;;;7.80;99.90;;;;;;5052226;28;20082;-75
2022/11/08 04:39:42;;;;;;;68.30;35.80;;;7.60;99.90;;;;;;5052312;28;20044;-75
2022/11/08 04:42:08;;;;;;;77.78;35.67;;;7.70;99.90;;;;;;5052584;28;20127;-75
2022/11/08 04:44:34;;;;;;;123.53;35.22;;;7.70;99.90;;;;;;5052519;28;20037;-75
2022/11/08 04:47:00;;;;;;;62.58;32.97;;;7.60;99.90;;;;;;5059225;28;20043;-75
2022/11/08 04:49:25;;;;;;;65.03;30.98;;;7.70;99.90;;;;;;5135732;28;20031;-75
2022/11/08 04:51:51;;;;;;;66.63;32.10;;;7.80;99.90;;;;;;5136149;28;20015;-75
2022/11/08 04:54:17;;;;;;;83.22;32.22;;;7.90;99.90;;;;;;5136172;28;20106;-75
2022/11/08 04:56:43;;;;;;;62.35;31.33;;;7.90;99.90;;;;;;5135846;28;20084;-75
2022/11/08 04:59:09;;;;;;;77.65;33.10;;;7.80;99.90;;;;;;5135543;28;20053;-75
2022/11/08 05:01:35;;;;;;;90.68;32.80;;;7.90;99.90;;;;;;5135823;28;20059;-75
2022/11/08 05:04:01;;;;;;;103.72;31.52;;;7.80;99.90;;;;;;5135643;28;20065;-75
2022/11/08 05:06:29;;;;;;;89.72;29.70;;;7.60;99.90;;;;;;5135770;28;20034;-75
2022/11/08 05:08:56;;;;;;;142.32;36.60;;;7.50;99.90;;;;;;5135648;28;20732;-76
2022/11/08 05:11:24;;;;;;;64.22;30.85;;;7.40;99.90;;;;;;5135893;28;20453;-75
2022/11/08 05:13:50;;;;;;;94.63;34.63;;;7.40;99.90;;;;;;5135505;28;20054;-75
2022/11/08 05:16:22;;;;;;;82.13;31.67;;;7.40;99.90;;;;;;5135894;28;20031;-75
2022/11/08 05:18:48;;;;;;;124.82;35.60;;;7.30;99.90;;;;;;5135739;28;20020;-75
2022/11/08 05:24:02;;;;;;;93.10;30.88;;;7.20;99.90;;;;;;5117404;28;20106;-75
2022/11/08 05:26:29;;;;;;;56.05;26.50;;;7.10;99.90;;;;;;5139038;27;20083;-75
2022/11/08 05:28:54;;;;;;;97.13;29.55;;;7.10;99.90;;;;;;5139476;27;20052;-75
2022/11/08 05:31:20;;;;;;;72.13;26.42;;;7.30;99.90;;;;;;5121159;27;20023;-75
2022/11/08 05:33:47;;;;;;;54.17;26.35;;;7.20;99.90;;;;;;5139682;27;20019;-75
2022/11/08 05:36:14;;;;;;;71.30;28.67;;;7.30;99.90;;;;;;5139327;27;20015;-76
2022/11/08 05:38:40;;;;;;;57.28;27.33;;;7.40;99.90;;;;;;5139521;27;20027;-75
2022/11/08 05:41:11;;;;;;;115.80;30.15;;;7.40;99.90;;;;;;5139162;27;20142;-75
2022/11/08 05:43:38;;;;;;;70.80;27.83;;;7.40;99.90;;;;;;5139061;27;20027;-75
2022/11/08 05:46:04;;;;;;;56.47;26.15;;;7.30;99.90;;;;;;5138937;27;20062;-76
2022/11/08 05:48:30;;;;;;;58.85;26.05;;;7.30;99.90;;;;;;5138899;27;20023;-75
2022/11/08 05:50:56;;;;;;;65.28;29.40;;;7.50;99.90;;;;;;5139006;27;20038;-76
2022/11/08 05:53:22;;;;;;;67.20;31.40;;;7.60;99.90;;;;;;5138903;27;20023;-75
2022/11/08 05:55:48;;;;;;;85.07;31.85;;;7.70;99.90;;;;;;5138955;27;20077;-75
2022/11/08 05:58:15;;;;;;;64.15;31.02;;;7.60;99.90;;;;;;5138744;27;20051;-75
2022/11/08 06:00:41;;;;;;;70.75;31.50;;;7.60;99.90;;;;;;5138743;27;20042;-75
2022/11/08 06:03:07;;;;;;;66.07;30.38;;;7.60;99.90;;;;;;5138675;27;20102;-75
2022/11/08 06:05:33;;;;;;;92.03;33.85;;;7.70;99.90;;;;;;5138734;27;20031;-75
2022/11/08 06:07:59;;;;;;;68.40;31.50;;;7.50;99.90;;;;;;5138628;27;20148;-75
2022/11/08 06:10:25;;;;;;;60.10;30.92;;;7.50;99.90;;;;;;5138583;27;20050;-75
2022/11/08 06:12:51;;;;;;;63.60;29.65;;;7.50;99.90;;;;;;5138697;27;20432;-76
2022/11/08 06:15:17;;;;;;;69.85;32.30;;;7.50;99.90;;;;;;5132743;27;20020;-75
2022/11/08 06:17:43;;;;;;;74.25;33.10;;;7.50;99.90;;;;;;5116741;27;20024;-75
2022/11/08 06:20:11;;;;;;;70.68;32.78;;;7.50;99.90;;;;;;5113410;28;20039;-76
2022/11/08 06:22:49;;;;;;;97.85;31.90;;;7.70;99.90;;;;;;5132520;27;20029;-75
2022/11/08 06:25:16;;;;;;;64.82;30.83;;;7.50;99.90;;;;;;5109663;28;20034;-75
2022/11/08 06:27:59;;;;;;;65.03;29.52;;;7.60;99.90;;;;;;5121213;27;20034;-75
2022/11/08 06:30:37;;;;;;;69.37;29.67;;;7.50;99.90;;;;;;5096594;28;20504;-75
2022/11/08 06:33:03;;;;;;;82.00;30.40;;;7.50;99.90;;;;;;5097147;28;20355;-76
2022/11/08 06:35:29;;;;;;;60.10;28.73;;;7.30;99.90;;;;;;5096632;28;20028;-75
2022/11/08 06:37:54;;;;;;;70.00;30.58;;;7.20;99.90;;;;;;5108926;27;20427;-76
2022/11/08 06:40:20;;;;;;;70.63;32.13;;;7.30;99.90;;;;;;5127603;27;20019;-75
2022/11/08 06:42:53;;;;;;;90.88;43.90;;;7.20;99.90;;;;;;5114094;27;20150;-75
2022/11/08 06:45:19;;;;;;;97.75;42.78;;;7.30;99.90;;;;;;5115878;27;20493;-75
2022/11/08 06:47:45;;;;;;;78.55;37.95;;;7.40;99.90;;;;;;5115296;28;20055;-75
2022/11/08 06:50:12;;;;;;;99.47;38.38;;;7.60;99.90;;;;;;5114469;28;20058;-75
2022/11/08 06:52:39;;;;;;;62.55;32.28;;;7.60;99.90;;;;;;5089065;28;20063;-76
2022/11/08 06:55:05;;;;;;;78.43;35.63;;;7.50;99.90;;;;;;5105899;28;20063;-76
2022/11/08 06:57:32;;;;;;;85.57;34.60;;;7.50;99.90;;;;;;5099739;28;20067;-75
2022/11/08 06:59:58;;;;;;;90.15;39.45;;;7.50;99.90;;;;;;5113511;27;20052;-75
2022/11/08 07:02:24;;;;;;;78.20;38.28;;;7.60;99.90;;;;;;5102743;27;20036;-75
2022/11/08 07:04:50;;;;;;;87.38;39.67;;;7.70;99.90;;;;;;5115128;28;20024;-75
2022/11/08 07:07:16;;;;;;;86.18;39.72;;;7.80;99.90;;;;;;5103927;28;20024;-75
2022/11/08 07:09:42;;;;;;;79.53;40.05;;;7.90;99.90;;;;;;5098789;28;20039;-75
2022/11/08 07:12:08;;;;;;;96.70;43.30;;;8.00;99.90;;;;;;5101483;28;20370;-75
2022/11/08 07:14:34;;;;;;;114.88;44.38;;;8.10;99.90;;;;;;5116458;28;20345;-76
2022/11/08 07:17:00;;;;;;;116.18;48.80;;;7.50;99.90;;;;;;5110262;28;20117;-75
2022/11/08 07:19:26;;;;;;;129.45;53.95;;;7.60;99.90;;;;;;5105561;28;20035;-76
2022/11/08 07:21:52;;;;;;;140.07;54.10;;;7.60;99.90;;;;;;5107896;28;20110;-76
2022/11/08 07:24:18;;;;;;;110.13;47.83;;;7.80;99.90;;;;;;5097658;28;20390;-75
2022/11/08 07:26:45;;;;;;;148.68;51.28;;;7.90;99.90;;;;;;5123053;27;20020;-76
2022/11/08 07:29:11;;;;;;;109.88;44.65;;;8.00;99.90;;;;;;5110007;28;20032;-75
2022/11/08 07:31:37;;;;;;;96.50;44.88;;;7.90;99.90;;;;;;5107388;28;20023;-76
2022/11/08 07:34:03;;;;;;;94.45;44.28;;;8.00;99.90;;;;;;5112231;28;20019;-75
2022/11/08 07:36:29;;;;;;;133.20;51.00;;;8.00;99.90;;;;;;5106103;28;20043;-75
2022/11/08 07:38:54;;;;;;;107.15;47.33;;;7.60;99.90;;;;;;5117202;27;20025;-75
2022/11/08 07:41:21;;;;;;;94.55;45.95;;;7.60;99.90;;;;;;5137472;27;20019;-75
2022/11/08 07:43:48;;;;;;;111.05;48.55;;;7.80;99.90;;;;;;5137571;27;20084;-75
2022/11/08 07:46:17;;;;;;;115.82;50.95;;;8.10;99.90;;;;;;5118869;27;20421;-76
2022/11/08 07:48:43;;;;;;;106.90;50.08;;;8.30;99.90;;;;;;5136251;27;20019;-75
2022/11/08 07:51:09;;;;;;;117.65;54.22;;;8.30;99.90;;;;;;5136692;27;20051;-75
2022/11/08 07:53:35;;;;;;;122.03;55.20;;;8.40;99.90;;;;;;5137421;27;20051;-76
2022/11/08 07:56:01;;;;;;;134.75;58.15;;;8.50;99.90;;;;;;5120311;27;20110;-75
2022/11/08 07:58:27;;;;;;;135.85;58.15;;;8.20;99.90;;;;;;5110461;28;20044;-75
2022/11/08 08:00:58;;;;;;;145.57;62.30;;;8.40;99.90;;;;;;5113058;28;20542;-75
2022/11/08 08:03:24;;;;;;;141.00;63.25;;;8.40;99.90;;;;;;5134917;27;20070;-75
2022/11/08 08:05:52;;;;;;;142.75;61.08;;;8.60;99.90;;;;;;5118744;27;20050;-76
2022/11/08 08:08:18;;;;;;;142.57;63.08;;;8.70;99.90;;;;;;5136909;27;20023;-76
2022/11/08 08:10:47;;;;;;;129.13;58.85;;;8.80;99.90;;;;;;5136919;27;20368;-76
2022/11/08 08:13:13;;;;;;;130.73;58.30;;;8.70;99.90;;;;;;5136987;27;20028;-76
2022/11/08 08:15:39;;;;;;;139.00;59.38;;;8.60;99.90;;;;;;5136853;28;20023;-77
2022/11/08 08:18:07;;;;;;;140.88;57.20;;;8.70;99.90;;;;;;5120144;28;20024;-75
2022/11/08 08:20:35;;;;;;;135.85;58.28;;;8.70;99.90;;;;;;5105460;28;20042;-75
2022/11/08 08:23:01;;;;;;;147.10;58.50;;;8.70;99.90;;;;;;5087431;28;20032;-75
2022/11/08 08:25:29;;;;;;;159.70;64.40;;;8.90;99.90;;;;;;5098615;28;20377;-75
2022/11/08 08:27:58;;;;;;;134.40;55.10;;;9.20;99.90;;;;;;5101801;28;20020;-75
2022/11/08 08:30:25;;;;;;;124.32;53.63;;;9.00;99.90;;;;;;5110154;28;20031;-75
2022/11/08 08:32:59;;;;;;;116.30;52.95;;;9.10;99.90;;;;;;5098383;28;20035;-75
2022/11/08 08:35:25;;;;;;;156.82;57.65;;;9.30;99.90;;;;;;5102931;28;20041;-75
2022/11/08 08:37:51;;;;;;;103.97;46.25;;;9.50;99.90;;;;;;5114563;28;20035;-75
2022/11/08 08:40:17;;;;;;;122.00;55.30;;;9.50;99.90;;;;;;5112568;28;20124;-75
2022/11/08 08:42:44;;;;;;;121.55;55.63;;;9.80;99.90;;;;;;5113429;28;20082;-75
2022/11/08 08:45:10;;;;;;;136.15;57.22;;;9.90;99.90;;;;;;5115534;28;20110;-75
2022/11/08 08:47:36;;;;;;;130.77;57.40;;;10.10;99.90;;;;;;5117087;28;20049;-75
2022/11/08 08:50:02;;;;;;;140.05;60.03;;;10.30;99.90;;;;;;5105698;28;20020;-75
2022/11/08 08:52:28;;;;;;;145.15;59.15;;;10.40;99.90;;;;;;5108484;28;20023;-75
2022/11/08 08:54:54;;;;;;;118.93;52.92;;;10.50;99.90;;;;;;5111756;28;20027;-75
2022/11/08 08:57:20;;;;;;;136.88;54.90;;;10.50;99.90;;;;;;5111048;28;20390;-74
2022/11/08 08:59:46;;;;;;;112.45;52.10;;;10.70;99.90;;;;;;5109905;28;20392;-75
2022/11/08 09:02:12;;;;;;;125.43;54.28;;;10.90;99.90;;;;;;5111271;27;20032;-75
2022/11/08 09:04:39;;;;;;;111.93;51.30;;;10.90;99.90;;;;;;5099627;28;20031;-75
2022/11/08 09:07:05;;;;;;;138.82;54.25;;;11.00;99.90;;;;;;5107148;28;20536;-75
2022/11/08 09:09:35;;;;;;;106.57;48.83;;;10.90;99.90;;;;;;5105585;28;20119;-75
2022/11/08 09:12:01;;;;;;;113.45;48.78;;;10.90;99.90;;;;;;5104521;28;20023;-75
2022/11/08 09:14:27;;;;;;;156.05;53.88;;;10.90;99.90;;;;;;5102576;28;20324;-75
2022/11/08 09:16:53;;;;;;;162.68;54.97;;;11.20;99.90;;;;;;5106675;28;20023;-75
2022/11/08 09:19:19;;;;;;;157.32;56.28;;;11.40;99.90;;;;;;5096642;28;20072;-76
2022/11/08 09:21:45;;;;;;;151.23;54.53;;;11.60;99.90;;;;;;5115947;28;20058;-76
2022/11/08 09:24:11;;;;;;;133.55;51.90;;;11.80;99.90;;;;;;5115878;28;20077;-75
2022/11/08 09:26:37;;;;;;;131.00;51.08;;;12.00;99.90;;;;;;5111014;28;20027;-75
2022/11/08 09:29:02;;;;;;;105.40;43.63;;;12.50;99.90;;;;;;5103530;28;20073;-75
2022/11/08 09:31:28;;;;;;;112.13;46.28;;;12.60;99.90;;;;;;5110608;28;20388;-75
2022/11/08 09:33:54;;;;;;;108.68;44.72;;;13.00;99.90;;;;;;5116682;28;20020;-75
2022/11/08 09:36:20;;;;;;;102.05;45.53;;;13.50;99.90;;;;;;5113213;28;20023;-75
2022/11/08 09:38:46;;;;;;;83.55;42.38;;;13.90;99.90;;;;;;5116952;28;20059;-75
2022/11/08 09:41:27;;;;;;;96.85;43.33;;;14.50;99.90;;;;;;5113364;28;20031;-74
2022/11/08 09:44:30;;;;;;;95.03;43.92;;;15.10;99.90;;;;;;5108526;28;20027;-75
2022/11/08 09:47:02;;;;;;;84.57;42.63;;;15.70;99.90;;;;;;5092028;28;20024;-75
2022/11/08 09:49:48;;;;;;;84.93;43.08;;;16.20;99.90;;;;;;5098375;28;20030;-75
2022/11/08 09:52:22;;;;;;;68.60;36.85;;;16.70;99.20;;;;;;5098258;28;21265;-75
2022/11/08 09:54:52;;;;;;;70.15;36.25;;;17.30;94.90;;;;;;5117163;28;20020;-75
2022/11/08 09:57:36;;;;;;;66.22;36.58;;;17.60;92.60;;;;;;5111994;28;20026;-74
2022/11/08 10:00:05;;;;;;;69.20;37.45;;;17.70;91.90;;;;;;5107116;27;20232;-75
2022/11/08 10:02:33;;;;;;;73.95;37.47;;;17.10;91.60;;;;;;5086359;28;20039;-75
2022/11/08 10:05:02;;;;;;;70.10;39.28;;;17.30;92.10;;;;;;5101607;28;20028;-75
2022/11/08 10:07:48;;;;;;;69.40;36.65;;;17.80;91.50;;;;;;5105283;28;20039;-75
2022/11/08 10:10:39;;;;;;;64.50;35.17;;;17.70;90.50;;;;;;5099962;28;20367;-75
2022/11/08 10:13:23;;;;;;;67.47;36.78;;;18.40;90.10;;;;;;5108043;27;20024;-75
2022/11/08 10:16:15;;;;;;;69.78;36.45;;;18.70;87.70;;;;;;5114591;28;20035;-75
2022/11/08 10:19:34;;;;;;;65.90;37.15;;;19.20;83.30;;;;;;5114532;28;20496;-75
2022/11/08 10:22:20;;;;;;;65.30;32.25;;;19.90;83.90;;;;;;5126718;27;20023;-75
2022/11/08 10:25:09;;;;;;;73.05;35.08;;;20.20;82.20;;;;;;5099775;28;20040;-76
2022/11/08 10:27:40;;;;;;;63.30;34.45;;;20.10;77.30;;;;;;5117830;28;20020;-76
2022/11/08 10:30:12;;;;;;;;;;;20.20;75.70;;;;;;5118290;28;20031;-76
2022/11/08 10:32:39;;;;;;;59.67;33.10;;;20.50;76.00;;;;;;5117108;28;19907;-75
2022/11/08 10:35:11;;;;;;;55.53;32.45;;;20.60;72.50;;;;;;5117759;28;20016;-76
2022/11/08 10:37:39;;;;;;;62.55;31.58;;;20.90;77.30;;;;;;5105871;28;20025;-76
2022/11/08 10:40:24;;;;;;;52.15;30.92;;;21.50;73.40;;;;;;5096386;28;20385;-76
2022/11/08 10:42:56;;;;;;;59.30;31.92;;;22.10;71.00;;;;;;5099938;28;20032;-75
2022/11/08 10:45:22;;;;;;;54.90;31.05;;;22.40;67.10;;;;;;5103299;28;20016;-76
2022/11/08 10:47:55;;;;;;;50.10;30.27;;;22.40;66.80;;;;;;5104778;28;20024;-76
2022/11/08 10:50:40;;;;;;;50.50;30.95;;;22.00;64.90;;;;;;5106739;28;20023;-76
2022/11/08 10:53:21;;;;;;;53.28;30.02;;;21.70;66.60;;;;;;5115589;28;20035;-76
2022/11/08 10:55:52;;;;;;;54.97;32.25;;;21.70;66.80;;;;;;5108712;28;20063;-76
2022/11/08 10:58:39;;;;;;;59.90;31.92;;;21.90;65.50;;;;;;5115348;28;20112;-76
2022/11/08 11:01:19;;;;;;;55.75;30.35;;;22.00;64.70;;;;;;5114530;28;20034;-76
2022/11/08 11:03:46;;;;;;;55.67;30.92;;;22.40;67.80;;;;;;5115790;28;20038;-76
2022/11/08 11:06:32;;;;;;;51.42;31.92;;;22.50;66.10;;;;;;5116264;28;20032;-76
2022/11/08 11:09:00;;;;;;;45.60;29.50;;;22.70;63.60;;;;;;5110938;28;20088;-76
2022/11/08 11:11:36;;;;;;;49.55;29.85;;;23.20;63.20;;;;;;5117269;28;20024;-75
2022/11/08 11:14:17;;;;;;;52.17;31.85;;;23.40;62.30;;;;;;5118924;27;20031;-76
2022/11/08 11:17:06;;;;;;;;;;;23.70;59.20;;;;;;5101546;27;20027;-76
2022/11/08 11:19:33;;;;;;;50.80;30.92;;;23.70;59.30;;;;;;5105185;27;19907;-75
2022/11/08 11:22:04;;;;;;;48.15;31.42;;;23.70;58.20;;;;;;5107008;27;20087;-76
2022/11/08 11:24:32;;;;;;;55.88;34.38;;;23.60;59.30;;;;;;5112579;27;20027;-75
2022/11/08 11:27:06;;;;;;;48.50;30.85;;;24.00;58.70;;;;;;5108061;27;20035;-76
2022/11/08 11:29:37;;;;;;;54.33;29.90;;;23.90;59.60;;;;;;5106259;28;20385;-76
2022/11/08 11:32:32;;;;;;;52.33;30.13;;;23.80;59.00;;;;;;5109689;28;20028;-76
2022/11/08 11:35:00;;;;;;;54.00;32.25;;;24.30;57.60;;;;;;5111903;28;20032;-76
2022/11/08 11:37:43;;;;;;;50.25;28.85;;;24.30;57.20;;;;;;5099775;28;20436;-76
2022/11/08 11:40:19;;;;;;;45.55;28.75;;;24.10;58.50;;;;;;5108983;28;20435;-76
2022/11/08 11:42:47;;;;;;;45.08;28.50;;;24.20;57.80;;;;;;5115146;28;20028;-76
2022/11/08 11:45:46;;;;;;;49.35;27.42;;;24.80;56.40;;;;;;5112338;28;20500;-76
2022/11/08 11:48:22;;;;;;;50.70;28.23;;;24.30;57.90;;;;;;5118652;27;20047;-76
2022/11/08 11:50:49;;;;;;;41.92;25.80;;;25.00;55.80;;;;;;5116434;27;20023;-75
2022/11/08 11:53:17;;;;;;;46.13;26.75;;;24.90;55.20;;;;;;5123075;27;20015;-76
2022/11/08 11:56:20;;;;;;;46.17;27.48;;;25.10;55.20;;;;;;5103534;28;20112;-76
2022/11/08 11:58:55;;;;;;;52.33;27.60;;;24.60;55.30;;;;;;5094077;28;20086;-76
2022/11/08 12:01:46;;;;;;;33.88;22.83;;;24.80;56.50;;;;;;5115876;27;20015;-76
2022/11/08 12:04:45;;;;;;;49.05;25.73;;;25.50;53.70;;;;;;5126027;27;20044;-75
2022/11/08 12:07:24;;;;;;;47.10;28.00;;;25.20;53.60;;;;;;5098962;28;20020;-75
2022/11/08 12:10:29;;;;;;;44.90;27.35;;;24.80;55.00;;;;;;5113313;28;20156;-76
2022/11/08 12:13:16;;;;;;;39.17;22.45;;;25.00;55.10;;;;;;5101680;28;20476;-75
2022/11/08 12:15:50;;;;;;;45.28;26.08;;;25.00;54.50;;;;;;5102293;28;20126;-75
2022/11/08 12:18:26;;;;;;;43.80;23.38;;;25.30;53.80;;;;;;5086984;28;20087;-76
2022/11/08 12:21:19;;;;;;;40.17;23.75;;;25.20;54.00;;;;;;5105520;28;20035;-76
2022/11/08 12:24:10;;;;;;;45.58;26.52;;;24.70;54.70;;;;;;5109587;28;20035;-76
2022/11/08 12:26:55;;;;;;;53.58;26.88;;;25.20;53.90;;;;;;5111686;28;20034;-73
2022/11/08 12:29:41;;;;;;;39.78;22.77;;;24.40;54.20;;;;;;5114383;28;20024;-73
2022/11/08 12:32:26;;;;;;;42.17;24.10;;;25.00;54.70;;;;;;5112330;28;20024;-74
2022/11/08 12:35:01;;;;;;;38.08;24.02;;;24.80;53.70;;;;;;5101801;28;20070;-73
2022/11/08 12:37:50;;;;;;;45.55;24.90;;;24.80;54.40;;;;;;5114146;28;20028;-73
2022/11/08 12:40:30;;;;;;;35.28;22.05;;;24.90;53.20;;;;;;5077618;28;20058;-73
2022/11/08 12:43:05;;;;;;;;;;;24.80;54.00;;;;;;5100699;28;20028;-73
2022/11/08 12:45:38;;;;;;;59.15;31.85;;;24.80;54.30;;;;;;5115780;28;19919;-73
2022/11/08 12:48:37;;;;;;;44.05;25.67;;;24.70;55.00;;;;;;5115506;28;20019;-73
2022/11/08 12:51:09;;;;;;;40.50;22.02;;;24.80;54.50;;;;;;5118297;28;20058;-73
2022/11/08 12:54:08;;;;;;;38.35;23.65;;;25.00;53.20;;;;;;5105261;28;20052;-73
2022/11/08 12:56:43;;;;;;;37.40;21.58;;;24.60;53.70;;;;;;5109819;28;20034;-73
2022/11/08 12:59:30;;;;;;;41.00;21.33;;;24.70;53.30;;;;;;5119135;27;20047;-73
2022/11/08 13:01:57;;;;;;;27.52;18.67;;;24.30;54.30;;;;;;5110134;28;20034;-73
2022/11/08 13:04:42;;;;;;;33.42;18.15;;;24.70;52.80;;;;;;5112751;28;20103;-73
2022/11/08 13:07:48;;;;;;;28.20;15.85;;;24.80;52.90;;;;;;5122148;27;20028;-74